createdAt,value
2023-03-31T00:01:30.406Z,11.30
2023-03-31T00:04:54.069Z,11.20
2023-03-31T00:08:19.415Z,11.20
2023-03-31T00:11:43.077Z,11.20
2023-03-31T00:15:07.404Z,11.10
2023-03-31T00:18:31.227Z,11.00
2023-03-31T00:21:54.948Z,10.90
2023-03-31T00:25:19.973Z,10.90
2023-03-31T00:28:43.623Z,10.80
2023-03-31T00:32:07.485Z,10.80
2023-03-31T00:35:32.107Z,10.70
2023-03-31T00:38:56.403Z,10.70
2023-03-31T00:42:21.377Z,10.70
2023-03-31T00:45:46.085Z,10.70
2023-03-31T00:49:16.173Z,10.60
2023-03-31T00:52:40.393Z,10.60
2023-03-31T00:56:11.259Z,10.50
2023-03-31T00:59:39.853Z,10.50
2023-03-31T01:03:07.542Z,10.50
2023-03-31T01:06:32.168Z,10.40
2023-03-31T01:10:00.824Z,10.40
2023-03-31T01:13:25.915Z,10.30
2023-03-31T01:16:53.571Z,10.30
2023-03-31T01:20:26.105Z,10.30
2023-03-31T01:24:21.025Z,10.30
2023-03-31T01:27:55.244Z,10.30
2023-03-31T01:31:38.428Z,10.30
2023-03-31T01:35:31.027Z,10.20
2023-03-31T01:39:24.043Z,10.20
2023-03-31T01:42:56.478Z,10.20
2023-03-31T01:46:28.881Z,10.10
2023-03-31T01:49:59.681Z,10.10
2023-03-31T01:53:31.320Z,10.10
2023-03-31T01:56:59.977Z,10.10
2023-03-31T02:00:33.314Z,10.10
2023-03-31T02:03:59.659Z,10.20
2023-03-31T02:07:28.133Z,10.20
2023-03-31T02:10:53.462Z,10.10
2023-03-31T02:14:22.775Z,10.20
2023-03-31T02:17:52.606Z,10.20
2023-03-31T02:21:17.084Z,10.20
2023-03-31T02:24:42.379Z,10.20
2023-03-31T02:28:10.650Z,10.20
2023-03-31T02:31:45.221Z,10.30
2023-03-31T02:35:16.123Z,10.30
2023-03-31T02:38:45.027Z,10.40
2023-03-31T02:42:08.982Z,10.40
2023-03-31T02:45:42.183Z,10.40
2023-03-31T02:49:09.950Z,10.40
2023-03-31T02:52:58.576Z,10.50
2023-03-31T02:56:45.548Z,10.50
2023-03-31T03:00:21.299Z,10.50
2023-03-31T03:03:54.247Z,10.50
2023-03-31T03:07:24.948Z,10.60
2023-03-31T03:11:11.575Z,10.60
2023-03-31T03:14:42.130Z,10.60
2023-03-31T03:18:07.433Z,10.70
2023-03-31T03:21:31.671Z,10.70
2023-03-31T03:24:55.845Z,10.60
2023-03-31T03:28:20.951Z,10.50
2023-03-31T03:31:44.578Z,10.50
2023-03-31T03:35:08.746Z,10.40
2023-03-31T03:38:32.467Z,10.30
2023-03-31T03:41:56.047Z,10.30
2023-03-31T03:45:20.953Z,10.20
2023-03-31T03:48:44.521Z,10.20
2023-03-31T03:52:08.478Z,10.10
2023-03-31T03:55:32.124Z,10.00
2023-03-31T03:58:56.104Z,10.00
2023-03-31T04:02:21.055Z,10.00
2023-03-31T04:05:44.697Z,10.00
2023-03-31T04:09:08.635Z,10.10
2023-03-31T04:12:32.196Z,10.10
2023-03-31T04:15:56.084Z,10.00
2023-03-31T04:19:21.792Z,10.00
2023-03-31T04:22:46.920Z,10.00
2023-03-31T04:26:10.684Z,10.00
2023-03-31T04:29:37.184Z,9.90
2023-03-31T04:33:02.754Z,9.90
2023-03-31T04:36:28.988Z,10.00
2023-03-31T04:39:54.589Z,10.00
2023-03-31T04:43:19.736Z,10.00
2023-03-31T04:46:43.310Z,10.00
2023-03-31T04:50:09.131Z,10.10
2023-03-31T04:53:36.491Z,10.10
2023-03-31T04:57:00.236Z,10.10
2023-03-31T05:00:24.482Z,10.00
2023-03-31T05:03:48.508Z,10.00
2023-03-31T05:07:12.173Z,10.00
2023-03-31T05:10:38.226Z,10.00
2023-03-31T05:14:01.770Z,10.00
2023-03-31T05:17:25.518Z,10.00
2023-03-31T05:20:49.290Z,10.00
2023-03-31T05:24:12.986Z,9.90
2023-03-31T05:27:37.950Z,9.90
2023-03-31T05:31:02.725Z,9.90
2023-03-31T05:34:26.362Z,9.90
2023-03-31T05:37:49.912Z,9.90
2023-03-31T05:41:13.642Z,9.90
2023-03-31T05:44:38.662Z,10.00
2023-03-31T05:48:02.637Z,10.00
2023-03-31T05:51:26.451Z,10.00
2023-03-31T05:54:50.218Z,10.00
2023-03-31T05:58:14.031Z,10.00
2023-03-31T06:01:39.457Z,10.00
2023-03-31T06:05:03.871Z,9.90
2023-03-31T06:08:27.474Z,10.00
2023-03-31T06:11:51.192Z,10.00
2023-03-31T06:15:15.122Z,10.00
2023-03-31T06:18:40.667Z,10.00
2023-03-31T06:22:04.569Z,10.00
2023-03-31T06:25:30.754Z,10.00
2023-03-31T06:29:00.982Z,10.00
2023-03-31T06:32:24.656Z,10.10
2023-03-31T06:35:49.711Z,10.10
2023-03-31T06:39:13.392Z,10.10
2023-03-31T06:42:37.018Z,10.10
2023-03-31T06:46:00.843Z,10.20
2023-03-31T06:49:24.533Z,10.20
2023-03-31T06:52:52.667Z,10.20
2023-03-31T06:56:16.727Z,10.30
2023-03-31T06:59:40.591Z,10.30
2023-03-31T07:03:11.408Z,10.30
2023-03-31T07:06:38.535Z,10.30
2023-03-31T07:10:03.941Z,10.20
2023-03-31T07:13:28.808Z,10.10
2023-03-31T07:16:53.277Z,10.10
2023-03-31T07:20:18.468Z,10.10
2023-03-31T07:23:42.172Z,10.10
2023-03-31T07:27:07.519Z,10.10
2023-03-31T07:30:36.370Z,10.10
2023-03-31T07:34:00.017Z,10.10
2023-03-31T07:37:24.466Z,10.20
2023-03-31T07:40:58.583Z,10.20
2023-03-31T07:44:33.655Z,10.30
2023-03-31T07:47:57.570Z,10.40
2023-03-31T07:51:23.485Z,10.40
2023-03-31T07:54:53.156Z,10.40
2023-03-31T07:58:17.203Z,10.40
2023-03-31T08:01:42.798Z,10.40
2023-03-31T08:05:08.703Z,10.50
2023-03-31T08:08:33.815Z,10.50
2023-03-31T08:11:58.338Z,10.50
2023-03-31T08:15:22.395Z,10.50
2023-03-31T08:18:50.180Z,10.50
2023-03-31T08:22:13.950Z,10.40
2023-03-31T08:25:38.437Z,10.40
2023-03-31T08:29:04.565Z,10.30
2023-03-31T08:32:29.341Z,10.30
2023-03-31T08:35:54.622Z,10.30
2023-03-31T08:39:19.376Z,10.30
2023-03-31T08:42:47.535Z,10.20
2023-03-31T08:46:15.219Z,10.30
2023-03-31T08:49:45.168Z,10.20
2023-03-31T08:53:21.637Z,10.20
2023-03-31T08:56:50.129Z,10.20
2023-03-31T09:00:17.909Z,10.20
2023-03-31T09:03:53.586Z,10.20
2023-03-31T09:07:23.376Z,10.10
2023-03-31T09:10:56.458Z,10.10
2023-03-31T09:14:29.654Z,10.00
2023-03-31T09:17:55.826Z,9.90
2023-03-31T09:21:25.373Z,9.80
2023-03-31T09:24:59.014Z,9.90
2023-03-31T09:28:30.979Z,9.90
2023-03-31T09:31:56.188Z,9.90
2023-03-31T09:35:23.393Z,9.90
2023-03-31T09:38:48.236Z,10.00
2023-03-31T09:42:14.939Z,10.10
2023-03-31T09:45:40.943Z,10.20
2023-03-31T09:49:12.442Z,10.10
2023-03-31T09:52:40.969Z,10.10
2023-03-31T09:56:08.468Z,10.00
2023-03-31T09:59:35.236Z,10.10
2023-03-31T10:03:07.973Z,10.00
2023-03-31T10:06:32.411Z,10.00
2023-03-31T10:09:57.316Z,10.10
2023-03-31T10:13:24.050Z,10.00
2023-03-31T10:16:51.577Z,10.10
2023-03-31T10:20:33.497Z,10.20
2023-03-31T10:24:01.342Z,10.20
2023-03-31T10:27:29.068Z,10.20
2023-03-31T10:30:55.193Z,10.30
2023-03-31T10:34:20.544Z,10.50
2023-03-31T10:37:45.814Z,10.60
2023-03-31T10:41:10.583Z,10.60
2023-03-31T10:44:36.905Z,10.60
2023-03-31T10:48:02.318Z,10.70
2023-03-31T10:51:28.599Z,11.00
2023-03-31T10:54:57.466Z,11.20
2023-03-31T10:58:35.264Z,11.50
2023-03-31T11:02:23.456Z,11.70
2023-03-31T11:05:52.414Z,12.00
2023-03-31T11:09:33.394Z,11.80
2023-03-31T11:13:02.417Z,12.00
2023-03-31T11:16:35.241Z,12.10
2023-03-31T11:20:13.132Z,12.00
2023-03-31T11:23:43.539Z,12.00
2023-03-31T11:27:27.196Z,11.90
2023-03-31T11:31:00.136Z,11.90
2023-03-31T11:34:41.371Z,11.80
2023-03-31T11:38:31.699Z,11.70
2023-03-31T11:41:59.680Z,11.80
2023-03-31T11:45:29.627Z,11.80
2023-03-31T11:48:59.671Z,12.10
2023-03-31T11:52:30.736Z,12.30
2023-03-31T11:55:56.613Z,12.40
2023-03-31T11:59:22.388Z,12.50
2023-03-31T12:02:52.958Z,12.50
2023-03-31T12:06:23.165Z,12.60
2023-03-31T12:10:05.924Z,12.50
2023-03-31T12:13:41.815Z,12.40
2023-03-31T12:17:12.607Z,12.50
2023-03-31T12:20:41.190Z,12.50
2023-03-31T12:24:16.630Z,12.60
2023-03-31T12:27:46.781Z,12.70
2023-03-31T12:31:23.717Z,12.90
2023-03-31T12:35:01.064Z,13.10
2023-03-31T12:38:42.544Z,13.30
2023-03-31T12:42:40.906Z,13.30
2023-03-31T12:46:25.432Z,13.30
2023-03-31T12:50:11.930Z,13.40
2023-03-31T12:53:47.745Z,13.50
2023-03-31T12:57:24.629Z,13.70
2023-03-31T13:01:06.547Z,14.00
2023-03-31T13:04:33.886Z,14.20
2023-03-31T13:08:06.200Z,14.50
2023-03-31T13:11:42.481Z,14.60
2023-03-31T13:15:15.874Z,14.30
2023-03-31T13:18:43.607Z,13.80
2023-03-31T13:22:08.151Z,13.40
2023-03-31T13:25:42.798Z,13.10
2023-03-31T13:29:42.028Z,12.70
2023-03-31T13:33:13.915Z,12.60
2023-03-31T13:37:18.687Z,12.40
2023-03-31T13:41:08.967Z,12.50
2023-03-31T13:45:02.748Z,12.50
2023-03-31T13:48:39.236Z,12.70
2023-03-31T13:52:12.325Z,12.80
2023-03-31T13:56:19.341Z,12.60
2023-03-31T14:00:29.322Z,12.40
2023-03-31T14:04:44.116Z,12.20
2023-03-31T14:08:12.736Z,12.20
2023-03-31T14:11:38.153Z,12.50
2023-03-31T14:15:11.222Z,12.50
2023-03-31T14:18:39.174Z,12.50
2023-03-31T14:22:15.602Z,12.50
2023-03-31T14:25:50.698Z,12.40
2023-03-31T14:29:23.446Z,12.40
2023-03-31T14:33:17.664Z,12.40
2023-03-31T14:36:53.618Z,12.40
2023-03-31T14:40:22.089Z,12.30
2023-03-31T14:43:55.320Z,12.30
2023-03-31T14:47:24.077Z,12.30
2023-03-31T14:50:51.873Z,12.40
2023-03-31T14:54:19.302Z,12.40
2023-03-31T14:57:47.892Z,12.40
2023-03-31T15:01:22.294Z,12.20
2023-03-31T15:04:55.073Z,12.20
2023-03-31T15:08:25.446Z,12.20
2023-03-31T15:11:57.367Z,12.20
2023-03-31T15:15:30.345Z,12.20
2023-03-31T15:18:55.767Z,12.20
2023-03-31T15:22:24.476Z,12.10
2023-03-31T15:25:48.403Z,11.80
2023-03-31T15:29:18.382Z,11.90
2023-03-31T15:32:43.795Z,12.10
2023-03-31T15:36:08.633Z,12.20
2023-03-31T15:39:34.864Z,12.30
2023-03-31T15:46:57.751Z,12.40
2023-03-31T15:50:24.678Z,12.30
2023-03-31T15:53:50.851Z,12.20
2023-03-31T15:57:19.541Z,12.30
2023-03-31T16:00:47.212Z,12.20
2023-03-31T16:04:13.421Z,12.30
2023-03-31T16:07:41.536Z,12.30
2023-03-31T16:11:11.039Z,12.20
2023-03-31T16:14:38.402Z,12.20
2023-03-31T16:18:07.212Z,12.20
2023-03-31T16:21:36.336Z,12.10
2023-03-31T16:25:01.682Z,12.20
2023-03-31T16:28:28.737Z,12.10
2023-03-31T16:32:09.542Z,12.10
2023-03-31T16:35:34.954Z,12.10
2023-03-31T16:39:00.300Z,12.00
2023-03-31T16:42:27.125Z,12.00
2023-03-31T16:45:52.429Z,12.00
2023-03-31T16:49:16.222Z,12.00
2023-03-31T16:52:40.202Z,12.00
2023-03-31T16:56:04.552Z,12.00
2023-03-31T16:59:29.563Z,12.00
2023-03-31T17:02:53.276Z,11.90
2023-03-31T17:06:17.087Z,11.90
2023-03-31T17:09:40.698Z,11.70
2023-03-31T17:13:04.472Z,11.60
2023-03-31T17:16:40.741Z,11.40
2023-03-31T17:20:12.517Z,11.20
2023-03-31T17:23:37.192Z,11.10
2023-03-31T17:27:00.999Z,10.90
2023-03-31T17:30:25.040Z,10.80
2023-03-31T17:33:50.397Z,10.80
2023-03-31T17:37:14.216Z,10.80
2023-03-31T17:40:38.192Z,10.80
2023-03-31T17:44:02.340Z,10.80
2023-03-31T17:47:27.022Z,10.80
2023-03-31T17:50:52.879Z,10.80
2023-03-31T17:54:16.754Z,10.80
2023-03-31T17:57:40.620Z,10.80
2023-03-31T18:01:05.942Z,10.80
2023-03-31T18:04:29.714Z,10.70
2023-03-31T18:07:55.429Z,10.60
2023-03-31T18:11:19.015Z,10.60
2023-03-31T18:14:42.621Z,10.60
2023-03-31T18:18:07.271Z,10.50
2023-03-31T18:21:31.026Z,10.60
2023-03-31T18:24:56.445Z,10.60
2023-03-31T18:28:20.788Z,10.50
2023-03-31T18:31:44.614Z,10.50
2023-03-31T18:35:09.035Z,10.50
2023-03-31T18:38:33.133Z,10.50
2023-03-31T18:41:59.526Z,10.40
2023-03-31T18:45:23.424Z,10.50
2023-03-31T18:48:48.627Z,10.40
2023-03-31T18:52:12.287Z,10.40
2023-03-31T18:55:36.262Z,10.40
2023-03-31T18:59:03.901Z,10.40
2023-03-31T19:02:29.304Z,10.40
2023-03-31T19:05:53.227Z,10.50
2023-03-31T19:09:17.183Z,10.50
2023-03-31T19:12:40.789Z,10.50
2023-03-31T19:16:06.278Z,10.50
2023-03-31T19:19:30.124Z,10.50
2023-03-31T19:22:54.443Z,10.50
2023-03-31T19:26:19.640Z,10.50
2023-03-31T19:29:43.247Z,10.50
2023-03-31T19:33:08.488Z,10.50
2023-03-31T19:36:32.542Z,10.50
2023-03-31T19:39:56.491Z,10.50
2023-03-31T19:43:22.992Z,10.50
2023-03-31T19:46:48.090Z,10.50
2023-03-31T19:50:13.819Z,10.50
2023-03-31T19:53:39.542Z,10.50
2023-03-31T19:57:03.285Z,10.40
2023-03-31T20:00:27.078Z,10.40
2023-03-31T20:03:53.052Z,10.40
2023-03-31T20:07:18.730Z,10.40
2023-03-31T20:10:42.878Z,10.40
2023-03-31T20:14:07.464Z,10.40
2023-03-31T20:17:31.250Z,10.30
2023-03-31T20:21:04.328Z,10.20
2023-03-31T20:24:29.411Z,10.30
2023-03-31T20:27:53.061Z,10.30
2023-03-31T20:31:19.171Z,10.30
2023-03-31T20:34:42.961Z,10.30
2023-03-31T20:38:06.628Z,10.20
2023-03-31T20:41:31.823Z,10.20
2023-03-31T20:44:55.608Z,10.10
2023-03-31T20:48:19.810Z,10.10
2023-03-31T20:51:45.192Z,10.10
2023-03-31T20:55:09.818Z,10.10
2023-03-31T20:58:34.819Z,10.10
2023-03-31T21:01:59.789Z,10.10
2023-03-31T21:05:23.398Z,10.10
2023-03-31T21:08:51.557Z,10.10
2023-03-31T21:12:15.231Z,10.00
2023-03-31T21:15:40.851Z,9.90
2023-03-31T21:19:04.642Z,9.90
2023-03-31T21:22:28.528Z,9.90
2023-03-31T21:25:54.449Z,9.90
2023-03-31T21:29:18.339Z,9.90
2023-03-31T21:32:43.573Z,9.80
2023-03-31T21:36:09.474Z,9.80
2023-03-31T21:39:33.234Z,9.80
2023-03-31T21:42:57.122Z,9.80
2023-03-31T21:46:23.367Z,9.70
2023-03-31T21:49:48.445Z,9.70
2023-03-31T21:53:12.090Z,9.70
2023-03-31T21:56:35.945Z,9.70
2023-03-31T21:59:59.571Z,9.70
2023-03-31T22:03:27.493Z,9.70
2023-03-31T22:06:53.096Z,9.70
2023-03-31T22:10:16.907Z,9.70
2023-03-31T22:13:40.773Z,9.70
2023-03-31T22:17:04.615Z,9.70
2023-03-31T22:20:28.267Z,9.70
2023-03-31T22:23:54.170Z,9.60
2023-03-31T22:27:17.826Z,9.60
2023-03-31T22:30:41.876Z,9.60
2023-03-31T22:34:05.446Z,9.60
2023-03-31T22:37:29.229Z,9.60
2023-03-31T22:40:54.791Z,9.60
2023-03-31T22:44:18.700Z,9.60
2023-03-31T22:47:43.054Z,9.60
2023-03-31T22:51:08.489Z,9.50
2023-03-31T22:54:32.806Z,9.50
2023-03-31T22:57:57.977Z,9.50
2023-03-31T23:01:22.494Z,9.40
2023-03-31T23:04:46.163Z,9.50
2023-03-31T23:08:09.917Z,9.40
2023-03-31T23:11:34.016Z,9.40
2023-03-31T23:14:59.161Z,9.40
2023-03-31T23:18:25.617Z,9.40
2023-03-31T23:21:49.484Z,9.40
2023-03-31T23:25:13.304Z,9.40
2023-03-31T23:28:38.093Z,9.40
2023-03-31T23:32:03.741Z,9.40
2023-03-31T23:35:27.372Z,9.40
2023-03-31T23:38:52.564Z,9.40
2023-03-31T23:42:20.368Z,9.40
2023-03-31T23:45:44.583Z,9.40
2023-03-31T23:49:09.653Z,9.40
2023-03-31T23:52:36.160Z,9.40
2023-03-31T23:56:02.719Z,9.40
2023-03-31T23:59:29.288Z,9.40
